Time;durP1;ratioP1;P1;durP2;ratioP2;P2;SDS_P1;SDS_P2;PMS_P1;PMS_P2;Temp;Humidity;BMP_temperature;BMP_pressure;BME280_temperature;BME280_humidity;BME280_pressure;Samples;Min_cycle;Max_cycle;Signal;HPM_P1;HPM_P2
2021/01/19 04:07:59;;;;;;;2.85;2.65;;;2.90;99.90;;;;;;6035054;23;20195;-76
2021/01/19 04:10:25;;;;;;;2.75;2.53;;;2.80;99.90;;;;;;5022444;28;20196;-75
2021/01/19 04:12:50;;;;;;;3.20;2.90;;;2.80;99.90;;;;;;5009193;28;20691;-76
2021/01/19 04:15:16;;;;;;;3.53;3.05;;;2.70;99.90;;;;;;4993234;28;20257;-75
2021/01/19 04:17:42;;;;;;;2.97;2.63;;;2.70;99.90;;;;;;4993010;28;20177;-69
2021/01/19 04:20:08;;;;;;;3.50;2.75;;;2.70;99.90;;;;;;4993239;28;20170;-69
2021/01/19 04:22:34;;;;;;;2.88;2.30;;;2.60;99.90;;;;;;4992839;28;20188;-75
2021/01/19 04:25:00;;;;;;;3.15;2.58;;;2.60;99.90;;;;;;4992841;28;20174;-75
2021/01/19 04:27:26;;;;;;;4.85;3.10;;;2.70;99.90;;;;;;4992537;28;20299;-75
2021/01/19 04:29:51;;;;;;;4.70;3.92;;;2.60;99.90;;;;;;4991607;28;20178;-75
2021/01/19 04:32:17;;;;;;;3.00;2.70;;;2.70;99.90;;;;;;4992710;28;20267;-75
2021/01/19 04:34:43;;;;;;;2.83;2.63;;;2.70;99.90;;;;;;4993045;28;20190;-76
2021/01/19 04:37:09;;;;;;;2.60;2.40;;;2.70;99.90;;;;;;4991364;28;20173;-70
2021/01/19 04:39:34;;;;;;;2.97;2.67;;;3.70;99.90;;;;;;4992455;28;20197;-69
2021/01/19 04:42:00;;;;;;;2.58;2.38;;;2.60;99.90;;;;;;4992769;28;20174;-68
2021/01/19 04:44:27;;;;;;;2.67;2.20;;;2.60;99.90;;;;;;4993189;28;20236;-68
2021/01/19 04:46:53;;;;;;;3.00;2.70;;;2.60;99.90;;;;;;4975310;28;20234;-69
2021/01/19 04:49:20;;;;;;;2.83;2.58;;;2.60;99.90;;;;;;4992529;28;20186;-69
2021/01/19 04:51:47;;;;;;;2.75;2.38;;;2.60;99.90;;;;;;4992803;28;20227;-69
2021/01/19 04:54:17;;;;;;;3.20;2.90;;;2.60;99.90;;;;;;4992178;28;20711;-69
2021/01/19 04:56:55;;;;;;;3.20;2.80;;;2.60;99.90;;;;;;4992658;28;20174;-69
2021/01/19 04:59:23;;;;;;;2.97;2.38;;;2.50;99.90;;;;;;4992305;28;20232;-69
2021/01/19 05:01:55;;;;;;;3.80;3.00;;;2.50;99.90;;;;;;4992475;28;20180;-69
2021/01/19 05:04:27;;;;;;;2.50;2.30;;;2.60;99.90;;;;;;4992289;28;20249;-69
2021/01/19 05:07:20;;;;;;;2.90;2.60;;;2.60;99.90;;;;;;4992040;28;20191;-69
2021/01/19 05:10:12;;;;;;;2.95;2.58;;;2.60;99.90;;;;;;4991792;28;20233;-69
2021/01/19 05:12:57;;;;;;;3.47;2.75;;;2.70;99.90;;;;;;4974975;28;20267;-69
2021/01/19 05:15:24;;;;;;;4.45;2.58;;;2.50;99.90;;;;;;4992294;28;20180;-68
2021/01/19 05:17:54;;;;;;;2.70;2.50;;;2.60;99.90;;;;;;4992501;28;20663;-69
2021/01/19 05:20:21;;;;;;;3.00;2.42;;;2.60;99.90;;;;;;4992155;28;20205;-69
2021/01/19 05:22:56;;;;;;;3.20;2.60;;;2.60;99.90;;;;;;4992259;28;20198;-69
2021/01/19 05:25:22;;;;;;;2.55;2.35;;;2.50;99.90;;;;;;4992340;28;20180;-69
2021/01/19 05:27:47;;;;;;;3.03;2.67;;;2.60;99.90;;;;;;4992615;28;20194;-69
2021/01/19 05:30:13;;;;;;;3.25;2.72;;;2.60;99.90;;;;;;4992177;28;20213;-69
2021/01/19 05:32:41;;;;;;;3.35;3.05;;;2.70;99.90;;;;;;4992059;28;20217;-69
2021/01/19 05:35:20;;;;;;;2.40;2.20;;;2.70;99.90;;;;;;4992177;28;20514;-69
2021/01/19 05:37:59;;;;;;;2.78;2.50;;;2.60;99.90;;;;;;4992171;28;20268;-69
2021/01/19 05:40:26;;;;;;;2.83;2.47;;;2.70;99.90;;;;;;4992163;28;20184;-69
2021/01/19 05:42:55;;;;;;;2.72;2.25;;;2.60;99.90;;;;;;4992140;28;20280;-69
2021/01/19 05:45:21;;;;;;;3.05;2.53;;;2.50;99.90;;;;;;4991871;28;20636;-69
2021/01/19 05:47:47;;;;;;;3.25;2.42;;;2.50;99.90;;;;;;4993187;28;20340;-69
2021/01/19 05:50:15;;;;;;;3.75;2.60;;;2.50;99.90;;;;;;4995856;28;20198;-69
2021/01/19 05:52:44;;;;;;;2.92;2.67;;;3.20;99.90;;;;;;4995852;28;20798;-70
2021/01/19 05:55:10;;;;;;;3.00;2.45;;;2.30;99.90;;;;;;4995523;28;20257;-68
2021/01/19 05:57:36;;;;;;;2.88;2.55;;;2.70;99.90;;;;;;4995690;28;20174;-69
2021/01/19 06:00:04;;;;;;;3.45;3.08;;;2.50;99.90;;;;;;4995696;28;20197;-69
2021/01/19 06:02:40;;;;;;;2.83;2.55;;;2.50;99.90;;;;;;4988318;28;20276;-67
2021/01/19 06:05:14;;;;;;;4.13;2.38;;;2.50;99.90;;;;;;5003889;28;20524;-69
2021/01/19 06:07:44;;;;;;;2.78;2.58;;;2.60;99.90;;;;;;5004391;28;20173;-69
2021/01/19 06:10:17;;;;;;;3.08;2.30;;;2.90;99.90;;;;;;5005558;28;20257;-69
2021/01/19 06:12:42;;;;;;;3.13;2.60;;;2.10;99.90;;;;;;5005682;28;20214;-68
2021/01/19 06:15:09;;;;;;;2.65;2.45;;;2.40;99.90;;;;;;4988839;28;20173;-69
2021/01/19 06:17:35;;;;;;;3.08;2.72;;;2.40;99.90;;;;;;5013061;28;20191;-69
2021/01/19 06:20:03;;;;;;;3.00;2.60;;;2.40;99.90;;;;;;4990467;28;20180;-69
2021/01/19 06:22:29;;;;;;;3.50;3.00;;;2.70;99.90;;;;;;5013120;28;20319;-69
2021/01/19 06:24:57;;;;;;;2.75;2.50;;;2.40;99.90;;;;;;5004012;28;20249;-69
2021/01/19 06:27:22;;;;;;;2.97;2.60;;;2.40;99.90;;;;;;4997899;28;20189;-69
2021/01/19 06:30:13;;;;;;;4.78;2.60;;;2.50;99.90;;;;;;4995182;28;20198;-69
2021/01/19 06:32:49;;;;;;;2.92;2.63;;;2.50;99.90;;;;;;4965645;28;20229;-70
2021/01/19 06:35:20;;;;;;;3.30;3.00;;;3.00;99.90;;;;;;4979900;28;20790;-68
2021/01/19 06:37:51;;;;;;;3.42;3.00;;;2.50;99.90;;;;;;5000559;28;20452;-69
2021/01/19 06:40:18;;;;;;;3.20;2.90;;;2.50;99.90;;;;;;5010540;28;20231;-68
2021/01/19 06:42:59;;;;;;;3.28;2.85;;;2.50;99.90;;;;;;5010908;28;20184;-68
2021/01/19 06:45:26;;;;;;;3.95;3.05;;;2.50;99.90;;;;;;4976292;28;20189;-68
2021/01/19 06:47:53;;;;;;;3.20;2.83;;;2.50;99.90;;;;;;4993736;28;20194;-68
2021/01/19 06:50:21;;;;;;;2.70;2.50;;;2.40;99.90;;;;;;4976411;28;20197;-68
2021/01/19 06:53:30;;;;;;;3.35;2.47;;;2.40;99.90;;;;;;4993623;28;20609;-68
2021/01/19 06:55:59;;;;;;;2.90;2.60;;;2.40;99.90;;;;;;4994593;28;20272;-68
2021/01/19 06:58:48;;;;;;;3.85;2.67;;;2.40;99.90;;;;;;4993826;28;20204;-69
2021/01/19 07:01:24;;;;;;;2.40;2.25;;;2.30;99.90;;;;;;4994290;28;20170;-67
2021/01/19 07:04:21;;;;;;;3.10;2.80;;;2.30;99.90;;;;;;5012956;28;20212;-68
2021/01/19 07:07:08;;;;;;;4.00;2.88;;;2.30;99.90;;;;;;5013185;28;20178;-68
2021/01/19 07:10:01;;;;;;;3.00;2.70;;;2.30;99.90;;;;;;5013208;28;20287;-67
2021/01/19 07:12:59;;;;;;;3.45;3.15;;;2.30;99.90;;;;;;5013607;28;20197;-68
2021/01/19 07:15:59;;;;;;;2.75;2.55;;;2.30;99.90;;;;;;4995913;28;20184;-69
2021/01/19 07:18:45;;;;;;;3.53;3.22;;;2.30;99.90;;;;;;5005074;28;20544;-69
2021/01/19 07:21:13;;;;;;;5.30;3.50;;;2.20;99.90;;;;;;4993731;28;20174;-68
2021/01/19 07:23:44;;;;;;;4.13;3.35;;;2.30;99.90;;;;;;4979862;28;20742;-68
2021/01/19 07:26:43;;;;;;;4.18;3.55;;;2.40;99.90;;;;;;4982568;28;20182;-68
2021/01/19 07:29:09;;;;;;;3.78;3.38;;;2.30;99.90;;;;;;4932208;29;20694;-68
2021/01/19 07:31:35;;;;;;;4.00;3.63;;;2.20;99.90;;;;;;4927093;29;20256;-68
2021/01/19 07:34:05;;;;;;;5.43;3.65;;;2.00;99.90;;;;;;4920321;29;20686;-68
2021/01/19 07:36:31;;;;;;;4.32;3.35;;;2.40;99.90;;;;;;4933049;29;20183;-67
2021/01/19 07:38:57;;;;;;;5.15;3.75;;;;;;;;;;4933257;29;20573;-68
2021/01/19 07:41:33;;;;;;;5.05;3.10;;;2.20;99.90;;;;;;4916831;29;20175;-68
2021/01/19 07:44:00;;;;;;;3.92;3.45;;;2.10;99.90;;;;;;4933187;29;20235;-67
2021/01/19 07:46:27;;;;;;;3.47;3.17;;;2.20;99.90;;;;;;4932809;29;20180;-68
2021/01/19 07:49:07;;;;;;;3.78;3.47;;;2.20;99.90;;;;;;4925233;29;20248;-70
2021/01/19 07:51:44;;;;;;;3.50;3.20;;;2.20;99.90;;;;;;4920641;29;20704;-68
2021/01/19 07:54:30;;;;;;;4.13;3.72;;;2.10;99.90;;;;;;4929247;29;20239;-69
2021/01/19 07:57:06;;;;;;;4.68;3.63;;;2.20;99.90;;;;;;4923146;29;20180;-68
2021/01/19 07:59:35;;;;;;;4.22;3.83;;;2.20;99.90;;;;;;4918983;29;20196;-68
2021/01/19 08:02:00;;;;;;;6.47;4.65;;;2.20;99.90;;;;;;4916848;29;20191;-69
2021/01/19 08:04:28;;;;;;;3.80;3.45;;;2.40;99.90;;;;;;4947387;28;20209;-68
2021/01/19 08:06:54;;;;;;;3.80;3.50;;;2.10;99.90;;;;;;5012963;28;20262;-68
2021/01/19 08:09:20;;;;;;;4.05;3.50;;;2.00;99.90;;;;;;5011862;28;20228;-68
2021/01/19 08:11:46;;;;;;;4.28;3.78;;;2.30;99.90;;;;;;4997349;28;20217;-68
2021/01/19 08:14:12;;;;;;;4.22;3.83;;;2.20;99.90;;;;;;4996385;28;20197;-69
2021/01/19 08:16:43;;;;;;;6.25;4.50;;;2.20;99.90;;;;;;4999002;28;20269;-68
2021/01/19 08:19:09;;;;;;;10.52;4.90;;;2.30;99.90;;;;;;5009659;28;20204;-68
2021/01/19 08:21:36;;;;;;;7.10;4.82;;;2.30;99.90;;;;;;5010897;28;20181;-68
2021/01/19 08:24:08;;;;;;;6.90;4.30;;;2.50;99.90;;;;;;4995687;28;20212;-68
2021/01/19 08:26:36;;;;;;;8.55;4.13;;;2.20;99.90;;;;;;4995937;28;20220;-68
2021/01/19 08:29:04;;;;;;;5.15;4.03;;;2.50;99.90;;;;;;5012440;28;20209;-67
2021/01/19 08:31:31;;;;;;;6.93;4.40;;;2.40;99.90;;;;;;5011964;28;20524;-68
2021/01/19 08:34:02;;;;;;;7.30;4.63;;;2.40;99.90;;;;;;5002250;28;20194;-67
2021/01/19 08:36:28;;;;;;;5.38;4.40;;;2.40;99.90;;;;;;4997854;28;20183;-68
2021/01/19 08:38:56;;;;;;;4.25;3.72;;;2.20;99.90;;;;;;5004569;28;20236;-72
2021/01/19 08:41:22;;;;;;;4.63;4.22;;;2.40;99.90;;;;;;4997650;28;20713;-73
2021/01/19 08:44:02;;;;;;;6.68;4.93;;;2.70;99.90;;;;;;4975029;28;20198;-72
2021/01/19 08:46:31;;;;;;;6.97;4.38;;;2.50;99.90;;;;;;4996216;28;20261;-65
2021/01/19 08:49:02;;;;;;;8.57;5.43;;;2.60;99.90;;;;;;5001667;28;20244;-67
2021/01/19 08:51:27;;;;;;;4.85;4.15;;;2.60;99.90;;;;;;4997950;28;20185;-68
2021/01/19 08:53:54;;;;;;;5.68;4.22;;;2.90;99.90;;;;;;4990916;28;20194;-66
2021/01/19 08:56:24;;;;;;;5.22;4.72;;;2.70;99.90;;;;;;5006194;28;20651;-68
2021/01/19 08:58:51;;;;;;;6.97;4.47;;;2.70;99.90;;;;;;4993758;28;20244;-68
2021/01/19 09:01:17;;;;;;;5.10;4.53;;;2.80;99.90;;;;;;4993220;28;20215;-68
2021/01/19 09:03:57;;;;;;;7.57;4.50;;;2.80;99.90;;;;;;5004524;28;20196;-68
2021/01/19 09:06:23;;;;;;;4.60;4.20;;;2.90;99.90;;;;;;5002739;28;20181;-67
2021/01/19 09:08:58;;;;;;;4.80;4.30;;;3.00;99.90;;;;;;5000681;28;20236;-65
2021/01/19 09:11:31;;;;;;;5.55;4.80;;;3.00;99.90;;;;;;4999628;28;20165;-66
2021/01/19 09:14:08;;;;;;;6.07;4.75;;;3.10;99.90;;;;;;4995842;28;20186;-67
2021/01/19 09:16:35;;;;;;;5.93;4.70;;;3.10;99.90;;;;;;5007120;28;20713;-68
2021/01/19 09:19:03;;;;;;;5.35;4.68;;;3.10;99.90;;;;;;4994588;28;20224;-68
2021/01/19 09:21:29;;;;;;;5.47;4.18;;;3.20;99.90;;;;;;5000096;28;20221;-68
2021/01/19 09:23:56;;;;;;;5.75;4.57;;;3.30;99.90;;;;;;5014552;28;20216;-68
2021/01/19 09:26:23;;;;;;;6.05;5.03;;;3.30;99.90;;;;;;5013884;28;20251;-67
2021/01/19 09:28:49;;;;;;;6.28;4.90;;;3.40;99.90;;;;;;5004698;28;20204;-68
2021/01/19 09:31:21;;;;;;;5.50;4.88;;;3.40;99.90;;;;;;4985350;28;20186;-68
2021/01/19 09:33:49;;;;;;;5.90;4.65;;;3.40;99.90;;;;;;5006638;28;20726;-68
2021/01/19 09:36:15;;;;;;;6.05;4.53;;;3.40;99.90;;;;;;5010506;28;20177;-67
2021/01/19 09:38:43;;;;;;;6.20;4.47;;;3.40;99.90;;;;;;4996985;28;20256;-68
2021/01/19 09:41:14;;;;;;;4.75;4.25;;;3.50;99.90;;;;;;5015903;28;20252;-68
2021/01/19 09:43:41;;;;;;;5.35;4.85;;;3.50;99.90;;;;;;5014692;28;20201;-67
2021/01/19 09:46:07;;;;;;;4.93;4.43;;;3.50;99.90;;;;;;5015576;28;20635;-68
2021/01/19 09:48:35;;;;;;;5.07;4.50;;;3.50;99.90;;;;;;4994926;28;20197;-67
2021/01/19 09:51:06;;;;;;;4.90;4.45;;;3.50;99.90;;;;;;5004809;28;20263;-68
2021/01/19 09:53:33;;;;;;;4.60;4.20;;;3.50;99.90;;;;;;5012326;28;20691;-68
2021/01/19 09:56:01;;;;;;;6.80;4.45;;;3.60;99.90;;;;;;4990489;28;20264;-69
2021/01/19 09:58:28;;;;;;;4.88;4.30;;;3.60;99.90;;;;;;5011723;28;20201;-67
2021/01/19 10:00:54;;;;;;;5.60;4.60;;;3.60;99.90;;;;;;4997396;28;20173;-68
2021/01/19 10:03:26;;;;;;;5.00;4.30;;;3.60;99.90;;;;;;5015039;28;20651;-68
2021/01/19 10:06:07;;;;;;;5.10;4.60;;;3.60;99.90;;;;;;5010963;28;20219;-67
2021/01/19 10:08:36;;;;;;;5.15;4.35;;;3.60;99.90;;;;;;4996800;28;20236;-70
2021/01/19 10:11:01;;;;;;;5.03;4.30;;;3.60;99.90;;;;;;4997273;28;20169;-71
2021/01/19 10:13:32;;;;;;;5.20;4.63;;;3.70;99.90;;;;;;5003471;28;20301;-70
2021/01/19 10:16:05;;;;;;;5.32;4.32;;;3.70;99.90;;;;;;4976560;28;20182;-70
2021/01/19 10:18:31;;;;;;;5.40;4.90;;;3.70;99.90;;;;;;5005143;28;20283;-71
2021/01/19 10:20:58;;;;;;;5.00;4.32;;;3.70;99.90;;;;;;4994813;28;20174;-72
2021/01/19 10:23:32;;;;;;;6.20;5.28;;;3.80;99.90;;;;;;5002586;28;20259;-68
2021/01/19 10:26:07;;;;;;;7.03;4.60;;;3.80;99.90;;;;;;5001292;28;20189;-68
2021/01/19 10:28:39;;;;;;;5.05;4.55;;;3.80;99.90;;;;;;4995075;28;20209;-69
2021/01/19 10:31:17;;;;;;;4.80;4.30;;;3.90;99.90;;;;;;4994108;28;20166;-69
2021/01/19 10:33:56;;;;;;;7.85;5.35;;;3.90;99.90;;;;;;4996947;28;20197;-69
2021/01/19 10:36:24;;;;;;;5.93;5.10;;;4.00;99.90;;;;;;4996463;28;20527;-68
2021/01/19 10:38:49;;;;;;;5.45;4.90;;;4.00;99.90;;;;;;5001712;28;20198;-68
2021/01/19 10:41:28;;;;;;;6.10;5.50;;;4.00;99.90;;;;;;4994630;28;20172;-67
2021/01/19 10:43:55;;;;;;;6.10;4.22;;;4.10;99.90;;;;;;4998595;28;20245;-68
2021/01/19 10:46:22;;;;;;;5.65;4.65;;;4.20;99.90;;;;;;4997477;28;20232;-68
2021/01/19 10:49:04;;;;;;;6.00;4.78;;;4.20;99.90;;;;;;4998851;28;20194;-70
2021/01/19 10:51:30;;;;;;;6.00;4.20;;;4.20;99.90;;;;;;5011575;28;20180;-68
2021/01/19 10:54:07;;;;;;;5.32;4.43;;;4.20;99.90;;;;;;4993661;28;20189;-69
2021/01/19 10:56:34;;;;;;;6.57;4.45;;;4.30;99.90;;;;;;4994397;28;20575;-68
2021/01/19 10:59:00;;;;;;;5.15;4.57;;;4.30;99.90;;;;;;4977012;28;20767;-68
2021/01/19 11:01:27;;;;;;;5.93;5.05;;;4.30;99.90;;;;;;4996377;28;20264;-69
2021/01/19 11:03:53;;;;;;;5.45;4.70;;;4.40;99.90;;;;;;4994402;28;20204;-68
2021/01/19 11:06:20;;;;;;;5.35;4.32;;;4.40;99.90;;;;;;4976743;28;20707;-68
2021/01/19 11:08:46;;;;;;;4.85;4.32;;;4.40;99.90;;;;;;5006157;28;20691;-69
2021/01/19 11:11:13;;;;;;;5.47;4.97;;;4.40;99.90;;;;;;5014010;28;20170;-68
2021/01/19 11:13:39;;;;;;;5.30;4.53;;;4.50;99.90;;;;;;5013470;28;20225;-68
2021/01/19 11:16:06;;;;;;;6.00;4.45;;;4.50;99.90;;;;;;5013904;28;20650;-69
2021/01/19 11:18:34;;;;;;;6.95;4.80;;;4.50;99.90;;;;;;5013843;28;20193;-68
2021/01/19 11:21:00;;;;;;;4.85;4.35;;;4.50;99.90;;;;;;5013947;28;20253;-68
2021/01/19 11:23:26;;;;;;;5.47;4.97;;;4.50;99.90;;;;;;5013236;28;20288;-69
2021/01/19 11:25:51;;;;;;;6.18;4.85;;;4.50;99.90;;;;;;5013703;28;20174;-68
2021/01/19 11:28:17;;;;;;;5.18;4.55;;;4.60;99.90;;;;;;5013442;28;20340;-68
2021/01/19 11:30:43;;;;;;;6.93;4.63;;;4.60;99.90;;;;;;5013658;28;20162;-68
2021/01/19 11:33:09;;;;;;;7.35;4.57;;;4.60;99.90;;;;;;5013264;28;20212;-69
2021/01/19 11:35:35;;;;;;;5.38;4.57;;;4.60;99.90;;;;;;5013974;28;20169;-69
2021/01/19 11:38:04;;;;;;;5.53;4.80;;;4.70;99.90;;;;;;5013065;28;20192;-69
2021/01/19 11:40:30;;;;;;;5.32;4.60;;;4.70;99.90;;;;;;5013340;28;20181;-68
2021/01/19 11:42:56;;;;;;;7.35;4.78;;;4.70;99.90;;;;;;5013406;28;20193;-69
2021/01/19 11:45:23;;;;;;;5.50;4.82;;;4.70;99.90;;;;;;5012566;28;20173;-68
2021/01/19 11:47:48;;;;;;;6.43;5.03;;;4.80;99.90;;;;;;5013213;28;20197;-68
2021/01/19 11:50:14;;;;;;;7.40;5.28;;;4.80;99.90;;;;;;5012960;28;20719;-68
2021/01/19 11:52:40;;;;;;;7.50;5.32;;;4.80;99.90;;;;;;5013131;28;20295;-68
2021/01/19 11:55:06;;;;;;;6.57;5.88;;;4.80;99.90;;;;;;5012773;28;20244;-69
2021/01/19 11:57:33;;;;;;;6.82;5.80;;;4.90;99.90;;;;;;4995438;28;20181;-68
2021/01/19 11:59:58;;;;;;;6.28;5.22;;;4.90;99.90;;;;;;5012924;28;20169;-68
2021/01/19 12:02:24;;;;;;;6.50;4.90;;;4.90;99.90;;;;;;4995216;28;20181;-68
2021/01/19 12:04:50;;;;;;;6.53;5.20;;;4.90;99.90;;;;;;5012935;28;20189;-68
2021/01/19 12:07:15;;;;;;;6.97;5.65;;;4.90;99.90;;;;;;5013083;28;20252;-68
2021/01/19 12:09:41;;;;;;;6.35;5.75;;;4.90;99.90;;;;;;5012402;28;20244;-68
2021/01/19 12:12:08;;;;;;;6.15;4.78;;;4.90;99.90;;;;;;5012471;28;20227;-68
2021/01/19 12:14:33;;;;;;;6.28;4.97;;;4.90;99.90;;;;;;5012665;28;20270;-68
2021/01/19 12:16:59;;;;;;;6.45;5.78;;;4.90;99.90;;;;;;5012715;28;20631;-66
2021/01/19 12:19:25;;;;;;;5.93;5.43;;;4.90;99.90;;;;;;5012948;28;20197;-66
2021/01/19 12:21:57;;;;;;;6.07;5.47;;;4.90;99.90;;;;;;5012667;28;20631;-67
2021/01/19 12:24:24;;;;;;;7.20;5.43;;;4.90;99.90;;;;;;5012397;28;20197;-66
2021/01/19 12:26:53;;;;;;;8.65;6.80;;;5.00;99.90;;;;;;5012646;28;20299;-66
2021/01/19 12:29:19;;;;;;;7.15;6.05;;;5.00;99.90;;;;;;5012437;28;20258;-66
2021/01/19 12:31:45;;;;;;;7.28;6.03;;;5.00;99.30;;;;;;5012171;28;20204;-66
2021/01/19 12:34:11;;;;;;;7.18;6.00;;;5.00;99.90;;;;;;5011470;28;20193;-66
2021/01/19 12:36:37;;;;;;;6.32;5.65;;;5.00;99.90;;;;;;5012441;28;20541;-66
2021/01/19 12:39:03;;;;;;;6.18;5.57;;;5.10;99.90;;;;;;5012081;28;20276;-66
2021/01/19 12:41:35;;;;;;;7.47;5.90;;;5.10;99.90;;;;;;4994549;28;20181;-66
2021/01/19 12:44:02;;;;;;;6.78;6.03;;;5.10;99.90;;;;;;5012228;28;20276;-66
2021/01/19 12:46:27;;;;;;;6.50;5.85;;;5.10;99.90;;;;;;5006843;28;20173;-67
2021/01/19 12:48:53;;;;;;;8.23;6.00;;;5.20;99.90;;;;;;4983142;28;20628;-69
2021/01/19 12:51:19;;;;;;;6.68;5.97;;;5.20;99.90;;;;;;5001679;28;20643;-73
2021/01/19 12:53:48;;;;;;;7.82;5.82;;;5.20;99.90;;;;;;5002383;28;20575;-68
2021/01/19 12:56:14;;;;;;;6.88;6.05;;;5.20;99.90;;;;;;4998545;28;20658;-70
2021/01/19 12:58:41;;;;;;;7.22;6.50;;;5.10;99.90;;;;;;4983069;28;20201;-71
2021/01/19 13:01:08;;;;;;;6.78;6.05;;;5.10;99.80;;;;;;5002848;28;20184;-70
2021/01/19 13:03:34;;;;;;;10.25;6.32;;;5.10;99.90;;;;;;5001311;28;20652;-73
2021/01/19 13:06:00;;;;;;;6.50;5.75;;;5.10;99.90;;;;;;4983777;28;20547;-71
2021/01/19 13:08:26;;;;;;;6.93;6.28;;;5.10;99.70;;;;;;4999447;28;20209;-69
2021/01/19 13:10:52;;;;;;;6.55;5.90;;;5.10;99.60;;;;;;5001981;28;20169;-69
2021/01/19 13:13:18;;;;;;;6.78;5.80;;;5.10;99.70;;;;;;5002273;28;20730;-69
2021/01/19 13:15:44;;;;;;;6.45;5.70;;;5.00;98.60;;;;;;5000542;28;20181;-67
2021/01/19 13:18:10;;;;;;;6.55;5.90;;;5.00;98.70;;;;;;5005185;28;20196;-68
2021/01/19 13:20:36;;;;;;;7.07;5.20;;;5.00;99.50;;;;;;5002678;28;20232;-69
2021/01/19 13:23:02;;;;;;;8.93;6.38;;;5.00;99.10;;;;;;5000456;28;20197;-70
2021/01/19 13:25:28;;;;;;;6.05;5.45;;;5.00;98.70;;;;;;5002096;28;20209;-67
2021/01/19 13:27:54;;;;;;;6.85;6.13;;;5.00;99.60;;;;;;4984445;28;20188;-69
2021/01/19 13:30:20;;;;;;;6.90;5.82;;;4.90;99.20;;;;;;4984505;28;20269;-66
2021/01/19 13:32:46;;;;;;;6.88;6.18;;;4.90;99.90;;;;;;5002260;28;20213;-68
2021/01/19 13:35:13;;;;;;;8.30;6.60;;;4.90;99.90;;;;;;4999656;28;20265;-67
2021/01/19 13:37:40;;;;;;;7.90;6.32;;;4.90;99.90;;;;;;4997435;28;20182;-69
2021/01/19 13:40:06;;;;;;;6.55;5.95;;;4.80;99.90;;;;;;5007057;28;20178;-68
2021/01/19 13:42:32;;;;;;;6.78;5.95;;;4.80;99.90;;;;;;5004908;28;20197;-69
2021/01/19 13:44:57;;;;;;;7.97;6.93;;;4.80;99.90;;;;;;5009658;28;20185;-70
2021/01/19 13:47:24;;;;;;;7.50;6.70;;;4.70;99.90;;;;;;5011818;28;20653;-69
2021/01/19 13:49:50;;;;;;;8.52;6.97;;;4.80;99.70;;;;;;5011695;28;20640;-69
2021/01/19 13:52:16;;;;;;;9.98;8.18;;;4.70;99.60;;;;;;5010988;28;20277;-69
2021/01/19 13:54:41;;;;;;;9.93;7.15;;;4.70;99.50;;;;;;5010795;28;20190;-68
2021/01/19 13:57:07;;;;;;;8.35;7.47;;;4.70;99.90;;;;;;5008739;28;20177;-71
2021/01/19 13:59:33;;;;;;;8.70;7.75;;;4.70;99.90;;;;;;4982243;28;20229;-70
2021/01/19 14:01:59;;;;;;;8.55;7.45;;;4.70;99.90;;;;;;5000033;28;20658;-70
2021/01/19 14:04:25;;;;;;;8.98;7.57;;;;;;;;;;4992018;28;20264;-71
2021/01/19 14:06:50;;;;;;;8.48;6.97;;;4.70;99.90;;;;;;5001950;28;20253;-71
2021/01/19 14:09:18;;;;;;;7.97;7.00;;;4.70;99.90;;;;;;4994665;28;20316;-71
2021/01/19 14:11:44;;;;;;;6.90;6.20;;;4.60;99.90;;;;;;5013030;28;20423;-72
2021/01/19 14:14:15;;;;;;;8.65;6.28;;;4.60;99.90;;;;;;5014850;28;20285;-71
2021/01/19 14:16:44;;;;;;;7.70;6.90;;;4.50;99.90;;;;;;4997402;28;20181;-70
2021/01/19 14:19:10;;;;;;;8.82;6.60;;;4.50;99.90;;;;;;5014245;28;20276;-70
2021/01/19 14:21:35;;;;;;;7.72;6.85;;;4.60;99.90;;;;;;5014371;28;20260;-71
2021/01/19 14:24:02;;;;;;;10.27;7.40;;;4.50;99.90;;;;;;5011065;28;20461;-70
2021/01/19 14:26:28;;;;;;;8.73;6.75;;;4.50;99.90;;;;;;5001318;28;20177;-70
2021/01/19 14:28:54;;;;;;;8.43;6.65;;;;;;;;;;5004936;28;20196;-71
2021/01/19 14:31:19;;;;;;;8.63;6.55;;;4.60;99.90;;;;;;5003354;28;20166;-71
2021/01/19 14:33:45;;;;;;;8.13;6.80;;;4.80;99.90;;;;;;4986185;28;20702;-71
2021/01/19 14:36:17;;;;;;;10.32;6.63;;;4.50;99.90;;;;;;4982156;28;20667;-71
2021/01/19 14:38:44;;;;;;;6.95;6.25;;;4.40;99.90;;;;;;4992233;28;20194;-71
2021/01/19 14:41:10;;;;;;;9.60;6.97;;;4.50;99.90;;;;;;4976779;28;20640;-70
2021/01/19 14:43:36;;;;;;;7.68;6.88;;;4.60;99.90;;;;;;4994445;28;20217;-71
2021/01/19 14:46:02;;;;;;;8.90;7.65;;;4.40;99.90;;;;;;4995005;28;20173;-71
2021/01/19 14:48:27;;;;;;;8.77;6.97;;;4.40;99.90;;;;;;4994565;28;20189;-71
2021/01/19 14:50:54;;;;;;;9.82;7.72;;;4.10;99.90;;;;;;4994837;28;20528;-70
2021/01/19 14:53:19;;;;;;;9.73;7.10;;;4.20;99.90;;;;;;4994198;28;20213;-70
2021/01/19 14:55:46;;;;;;;8.05;7.25;;;4.20;99.90;;;;;;4994508;28;20186;-70
2021/01/19 14:58:12;;;;;;;8.80;7.85;;;4.40;99.90;;;;;;4994655;28;20193;-71
2021/01/19 15:00:38;;;;;;;7.78;6.95;;;;;;;;;;4994586;28;20546;-70
2021/01/19 15:03:05;;;;;;;9.70;7.68;;;4.30;99.90;;;;;;4976945;28;20208;-70
2021/01/19 15:05:31;;;;;;;8.30;7.20;;;3.90;99.90;;;;;;4976834;28;20539;-71
2021/01/19 15:07:58;;;;;;;8.60;7.45;;;4.30;99.90;;;;;;4997717;28;20672;-71
2021/01/19 15:10:26;;;;;;;9.77;7.13;;;4.30;99.90;;;;;;5003901;28;20272;-74
2021/01/19 15:12:55;;;;;;;9.10;7.32;;;;;;;;;;5004592;28;20244;-71
2021/01/19 15:15:22;;;;;;;9.70;8.75;;;4.20;99.90;;;;;;5002680;28;20430;-71
2021/01/19 15:17:50;;;;;;;9.57;8.57;;;4.20;99.90;;;;;;4988986;28;20520;-69
2021/01/19 15:20:16;;;;;;;8.38;7.47;;;4.20;99.90;;;;;;4996943;28;20166;-71
2021/01/19 15:22:41;;;;;;;9.00;8.18;;;4.20;99.90;;;;;;5010851;28;20633;-70
2021/01/19 15:25:07;;;;;;;9.77;7.68;;;4.20;99.90;;;;;;4993702;28;20221;-70
2021/01/19 15:27:33;;;;;;;9.27;8.30;;;4.20;99.90;;;;;;4998059;28;20177;-69
2021/01/19 15:30:00;;;;;;;8.32;7.50;;;4.20;99.90;;;;;;5001333;28;20182;-72
2021/01/19 15:32:27;;;;;;;9.18;7.88;;;4.20;99.90;;;;;;4993468;28;20206;-71
2021/01/19 15:34:54;;;;;;;9.23;8.25;;;4.20;99.90;;;;;;4976459;28;20178;-71
2021/01/19 15:37:20;;;;;;;9.95;8.50;;;4.20;99.90;;;;;;5005241;28;20177;-71
2021/01/19 15:39:46;;;;;;;8.80;7.85;;;4.10;99.90;;;;;;4975883;28;20197;-71
2021/01/19 15:42:11;;;;;;;9.15;7.82;;;4.10;99.90;;;;;;4975686;28;20648;-70
2021/01/19 15:44:37;;;;;;;8.10;7.07;;;4.10;99.90;;;;;;4993744;28;20189;-71
2021/01/19 15:47:04;;;;;;;9.35;7.88;;;4.00;99.90;;;;;;4993615;28;20229;-71
2021/01/19 15:49:30;;;;;;;8.55;7.40;;;4.10;99.90;;;;;;4993447;28;20200;-71
2021/01/19 15:51:55;;;;;;;12.55;7.93;;;4.10;99.90;;;;;;4999283;28;20209;-71
2021/01/19 15:54:21;;;;;;;9.68;8.45;;;4.10;99.90;;;;;;4990761;28;20850;-73
2021/01/19 15:56:49;;;;;;;9.80;8.30;;;4.00;99.90;;;;;;5012696;28;20406;-73
2021/01/19 15:59:17;;;;;;;13.20;9.25;;;4.00;99.90;;;;;;4994873;28;20276;-73
2021/01/19 16:01:50;;;;;;;10.95;9.18;;;4.00;99.90;;;;;;4995359;28;20208;-73
2021/01/19 16:04:16;;;;;;;11.38;9.50;;;4.00;99.90;;;;;;5013058;28;20192;-68
2021/01/19 16:06:42;;;;;;;11.70;9.70;;;4.00;99.90;;;;;;5003230;28;20185;-68
2021/01/19 16:09:10;;;;;;;9.23;7.88;;;3.60;99.90;;;;;;4991524;28;20343;-69
2021/01/19 16:11:36;;;;;;;10.07;8.45;;;4.30;99.90;;;;;;4989619;28;20188;-69
2021/01/19 16:14:03;;;;;;;10.38;9.30;;;4.00;99.90;;;;;;4995139;28;20193;-68
2021/01/19 16:16:32;;;;;;;12.40;11.07;;;3.90;99.90;;;;;;5000998;28;20244;-68
2021/01/19 16:18:59;;;;;;;13.57;10.65;;;3.80;99.90;;;;;;5000013;28;20209;-68
2021/01/19 16:21:25;;;;;;;14.40;10.45;;;3.80;99.90;;;;;;5002837;28;20170;-68
2021/01/19 16:23:51;;;;;;;9.82;7.88;;;3.90;99.90;;;;;;5005606;28;20779;-69
2021/01/19 16:26:20;;;;;;;7.68;6.85;;;3.90;99.90;;;;;;5002357;28;20170;-69
2021/01/19 16:28:46;;;;;;;8.73;6.70;;;4.00;99.90;;;;;;5012038;28;20668;-69
2021/01/19 16:31:15;;;;;;;6.10;5.50;;;4.00;99.90;;;;;;5008852;28;20177;-68
2021/01/19 16:33:41;;;;;;;7.18;6.25;;;4.20;99.90;;;;;;5012737;28;20217;-69
2021/01/19 16:36:07;;;;;;;7.70;6.93;;;4.00;99.90;;;;;;4996119;28;20555;-69
2021/01/19 16:38:33;;;;;;;7.90;6.30;;;;;;;;;;4997609;28;20747;-69
2021/01/19 16:41:01;;;;;;;7.00;6.30;;;3.60;99.90;;;;;;5004657;28;20643;-70
2021/01/19 16:43:27;;;;;;;7.72;6.53;;;3.60;99.90;;;;;;4999193;28;20239;-68
2021/01/19 16:45:54;;;;;;;8.02;6.88;;;3.90;99.90;;;;;;4993355;28;20173;-68
2021/01/19 16:48:21;;;;;;;7.47;6.30;;;4.00;99.90;;;;;;4998369;28;20621;-68
2021/01/19 16:50:47;;;;;;;8.23;7.43;;;3.90;99.90;;;;;;5006488;28;20185;-66
2021/01/19 16:53:20;;;;;;;7.43;6.72;;;3.80;99.90;;;;;;4982682;28;20213;-69
2021/01/19 16:55:46;;;;;;;9.02;7.60;;;3.30;99.90;;;;;;5011833;28;20173;-71
2021/01/19 16:58:13;;;;;;;8.50;7.28;;;;;;;;;;5012234;28;20219;-70
2021/01/19 17:00:39;;;;;;;10.48;8.30;;;3.60;99.90;;;;;;4993359;28;20246;-69
2021/01/19 17:03:05;;;;;;;9.55;7.82;;;3.60;99.90;;;;;;5010983;28;20664;-70
2021/01/19 17:05:34;;;;;;;9.77;7.63;;;3.60;99.90;;;;;;5011967;28;20188;-71
2021/01/19 17:08:04;;;;;;;8.77;7.88;;;3.60;99.90;;;;;;5011559;28;20200;-70
2021/01/19 17:10:30;;;;;;;10.25;7.90;;;3.70;99.90;;;;;;5012352;28;20224;-69
2021/01/19 17:12:56;;;;;;;9.52;8.15;;;3.80;99.90;;;;;;5007612;28;20217;-70